Time;durP1;ratioP1;P1;durP2;ratioP2;P2;SDS_P1;SDS_P2;PMS_P1;PMS_P2;Temp;Humidity;BMP_temperature;BMP_pressure;BME280_temperature;BME280_humidity;BME280_pressure;Samples;Min_cycle;Max_cycle;Signal;HPM_P1;HPM_P2
2021/04/13 00:02:36;;;;;;;15.6;12.4;;;;;;;3.52;100;99180.06;;;;
2021/04/13 00:12:34;;;;;;;11.9;10.7;;;;;;;3.04;100;99186.87;;;;
2021/04/13 00:22:32;;;;;;;12.5;10.6;;;;;;;2.78;100;99184.84;;;;
2021/04/13 00:32:32;;;;;;;16.3;12.3;;;;;;;2.79;100;99178.48;;;;
2021/04/13 00:42:29;;;;;;;8.6;6.8;;;;;;;2.47;100;99190.72;;;;
2021/04/13 00:52:34;;;;;;;11;8.9;;;;;;;2.49;100;99213.39;;;;
2021/04/13 01:02:27;;;;;;;7.8;5.7;;;;;;;2.3;100;99219.13;;;;
2021/04/13 01:12:20;;;;;;;9.3;5.5;;;;;;;2.14;100;99225.23;;;;
2021/04/13 01:22:21;;;;;;;11.2;7.9;;;;;;;1.99;100;99236.36;;;;
2021/04/13 01:32:16;;;;;;;14.3;11.3;;;;;;;1.8;100;99238.39;;;;
2021/04/13 01:42:13;;;;;;;18.3;14.7;;;;;;;1.72;100;99241.41;;;;
2021/04/13 01:52:10;;;;;;;19.8;14.8;;;;;;;1.5;100;99241.2;;;;
2021/04/13 02:02:08;;;;;;;15.4;13.2;;;;;;;1.11;100;99233.15;;;;
2021/04/13 02:12:06;;;;;;;14.7;13.2;;;;;;;1.07;100;99263.84;;;;
2021/04/13 02:22:03;;;;;;;17.4;13.3;;;;;;;0.89;100;99278;;;;
2021/04/13 02:32:01;;;;;;;18.6;14.7;;;;;;;0.83;100;99294.84;;;;
2021/04/13 02:42:00;;;;;;;18.8;12.3;;;;;;;0.75;100;99295.15;;;;
2021/04/13 02:51:56;;;;;;;13.7;10;;;;;;;0.6;100;99286.79;;;;
2021/04/13 03:01:53;;;;;;;15.3;12.8;;;;;;;0.66;100;99292;;;;
2021/04/13 03:11:51;;;;;;;11.4;10.3;;;;;;;0.58;100;99287.03;;;;
2021/04/13 03:21:48;;;;;;;14.2;12.7;;;;;;;0.57;100;99281.94;;;;
2021/04/13 03:31:46;;;;;;;19.3;13.3;;;;;;;0.56;100;99310.3;;;;
2021/04/13 03:41:43;;;;;;;16.8;12.4;;;;;;;0.66;100;99305.25;;;;
2021/04/13 03:51:41;;;;;;;14.4;11.1;;;;;;;0.67;100;99322.8;;;;
2021/04/13 04:01:38;;;;;;;15.6;10.3;;;;;;;0.78;100;99322.03;;;;
2021/04/13 04:11:36;;;;;;;14.3;9.3;;;;;;;0.74;100;99335.97;;;;
2021/04/13 04:21:36;;;;;;;18.8;10.9;;;;;;;0.74;100;99347.39;;;;
2021/04/13 04:31:36;;;;;;;13.5;11.5;;;;;;;0.84;100;99355.61;;;;
2021/04/13 04:41:40;;;;;;;16.5;13.5;;;;;;;0.86;100;99373.98;;;;
2021/04/13 04:51:28;;;;;;;14.4;10.3;;;;;;;0.86;100;99381.94;;;;
2021/04/13 05:01:24;;;;;;;12.2;9.4;;;;;;;0.86;100;99384.59;;;;
2021/04/13 05:11:21;;;;;;;11.4;9;;;;;;;0.89;100;99392.09;;;;
2021/04/13 05:21:19;;;;;;;12;8.4;;;;;;;0.99;100;99406.45;;;;
2021/04/13 05:31:16;;;;;;;13.8;9.7;;;;;;;1.1;100;99406.71;;;;
2021/04/13 05:41:14;;;;;;;10.1;7.5;;;;;;;1.12;100;99415.24;;;;
2021/04/13 05:51:11;;;;;;;11.7;8.7;;;;;;;1.19;100;99416.77;;;;
2021/04/13 06:01:09;;;;;;;13.6;8.8;;;;;;;1.29;100;99432.15;;;;
2021/04/13 06:11:07;;;;;;;17.1;13.4;;;;;;;1.42;100;99437.29;;;;
2021/04/13 06:21:04;;;;;;;13.4;9.7;;;;;;;1.37;100;99450.42;;;;
2021/04/13 06:31:02;;;;;;;10.1;7.1;;;;;;;1.55;100;99470.8;;;;
2021/04/13 06:40:59;;;;;;;12.9;8.8;;;;;;;1.7;100;99481.82;;;;
2021/04/13 06:50:57;;;;;;;11.5;10.4;;;;;;;1.58;100;99473.81;;;;
2021/04/13 07:00:55;;;;;;;16.8;15;;;;;;;1.88;100;99481.72;;;;
2021/04/13 07:10:54;;;;;;;9.7;8.2;;;;;;;1.83;100;99489.58;;;;
2021/04/13 07:20:50;;;;;;;9.5;6.7;;;;;;;1.85;100;99485.64;;;;
2021/04/13 07:30:47;;;;;;;8.2;7.2;;;;;;;1.98;100;99480.11;;;;
2021/04/13 07:40:45;;;;;;;15.9;6.9;;;;;;;2.19;100;99484.05;;;;
2021/04/13 07:50:43;;;;;;;8.8;5.7;;;;;;;2.46;100;99493.17;;;;
2021/04/13 08:00:40;;;;;;;8;5;;;;;;;2.68;100;99490.73;;;;
2021/04/13 08:10:38;;;;;;;6.3;2.8;;;;;;;2.88;100;99504.45;;;;
2021/04/13 08:20:36;;;;;;;6.6;3;;;;;;;2.84;100;99500.67;;;;
2021/04/13 08:30:44;;;;;;;7.2;4.2;;;;;;;3.07;100;99489.14;;;;
2021/04/13 08:40:35;;;;;;;6;3.9;;;;;;;3.14;100;99486.33;;;;
2021/04/13 08:50:35;;;;;;;9.1;4.6;;;;;;;3.23;100;99487.59;;;;
2021/04/13 09:00:42;;;;;;;4.6;2.8;;;;;;;3.18;100;99480.3;;;;
2021/04/13 09:10:25;;;;;;;6.6;3.9;;;;;;;3.46;100;99476.82;;;;
2021/04/13 09:20:24;;;;;;;5.4;3;;;;;;;3.69;100;99478.54;;;;
2021/04/13 09:30:21;;;;;;;6.6;3.7;;;;;;;3.48;100;99477.38;;;;
2021/04/13 09:40:18;;;;;;;7.8;4.8;;;;;;;3.39;100;99476.16;;;;
2021/04/13 09:50:16;;;;;;;6;3.6;;;;;;;3.42;100;99459.69;;;;
2021/04/13 10:00:14;;;;;;;6.5;4.1;;;;;;;3.7;100;99451.66;;;;
2021/04/13 10:10:12;;;;;;;6.2;4;;;;;;;3.53;100;99461.49;;;;
2021/04/13 10:20:10;;;;;;;8.5;4.7;;;;;;;3.54;100;99452.42;;;;
2021/04/13 10:30:08;;;;;;;5.2;3.6;;;;;;;3.47;100;99435.81;;;;
2021/04/13 10:40:06;;;;;;;6.8;3.4;;;;;;;3.79;100;99436.05;;;;
2021/04/13 10:50:07;;;;;;;6;3.9;;;;;;;4.04;100;99428.45;;;;
2021/04/13 11:00:02;;;;;;;6.7;3.6;;;;;;;3.9;100;99416.5;;;;
2021/04/13 11:10:00;;;;;;;5.3;2.9;;;;;;;4.33;100;99418.47;;;;
2021/04/13 11:19:58;;;;;;;6.5;3.3;;;;;;;4.28;100;99408.52;;;;
2021/04/13 11:30:24;;;;;;;33.9;29.9;;;;;;;4.5;100;99389.87;;;;
2021/04/13 11:39:54;;;;;;;8.3;4.9;;;;;;;4.64;100;99390.3;;;;
2021/04/13 11:49:52;;;;;;;12.9;3.3;;;;;;;4.79;100;99383.25;;;;
2021/04/13 11:59:50;;;;;;;8.8;4.4;;;;;;;4.74;100;99375.2;;;;
2021/04/13 12:10:02;;;;;;;11.3;3.5;;;;;;;4.69;100;99369.79;;;;
2021/04/13 12:19:46;;;;;;;4.4;2.2;;;;;;;4.86;100;99361.72;;;;
2021/04/13 12:29:44;;;;;;;3.9;2.5;;;;;;;4.76;99.83105;99338.36;;;;
2021/04/13 12:39:44;;;;;;;5.8;3.2;;;;;;;4.36;100;99332.58;;;;
2021/04/13 12:49:41;;;;;;;5.6;3.1;;;;;;;4.8;100;99323.45;;;;
2021/04/13 12:59:39;;;;;;;6;3.3;;;;;;;4.65;100;99311.83;;;;
2021/04/13 13:09:38;;;;;;;8.1;4.4;;;;;;;4.48;100;99315.37;;;;
2021/04/13 13:19:35;;;;;;;5.4;3.4;;;;;;;4.42;100;99318.23;;;;
2021/04/13 13:29:33;;;;;;;5.4;3.3;;;;;;;4.64;100;99316.36;;;;
2021/04/13 13:39:31;;;;;;;9.8;4.6;;;;;;;4.73;100;99300.67;;;;
2021/04/13 13:49:40;;;;;;;14.7;10.2;;;;;;;4.32;100;99300.25;;;;
2021/04/13 13:59:38;;;;;;;20.2;11.8;;;;;;;4.31;100;99297.81;;;;
2021/04/13 14:09:25;;;;;;;12.2;9.4;;;;;;;3.89;100;99277.03;;;;
2021/04/13 14:19:23;;;;;;;12.9;9.1;;;;;;;3.68;100;99283.14;;;;
2021/04/13 14:29:22;;;;;;;12.8;6.3;;;;;;;3.46;100;99269.8;;;;
2021/04/13 14:39:19;;;;;;;15.6;11.3;;;;;;;3.53;100;99277.61;;;;
2021/04/13 14:49:17;;;;;;;18.9;13.2;;;;;;;3.41;100;99267.04;;;;
2021/04/13 14:59:15;;;;;;;15;8.2;;;;;;;3.68;100;99247.71;;;;
2021/04/13 15:09:13;;;;;;;8.3;4.9;;;;;;;3.76;100;99256.07;;;;
2021/04/13 15:19:11;;;;;;;8.8;6.2;;;;;;;3.58;100;99255.54;;;;
2021/04/13 15:29:09;;;;;;;18.4;11.6;;;;;;;3.22;100;99243.58;;;;
2021/04/13 15:39:06;;;;;;;17.2;12.3;;;;;;;3.38;100;99234.75;;;;
2021/04/13 15:49:04;;;;;;;17;10.2;;;;;;;3.18;100;99251.25;;;;
2021/04/13 15:59:02;;;;;;;8.9;6.9;;;;;;;3.2;100;99232.34;;;;
2021/04/13 16:09:00;;;;;;;9.6;7.1;;;;;;;2.92;100;99223.41;;;;
2021/04/13 16:18:58;;;;;;;9.2;5.8;;;;;;;2.73;100;99230.03;;;;
2021/04/13 16:28:56;;;;;;;8.9;5.4;;;;;;;2.66;100;99233.88;;;;
2021/04/13 16:38:54;;;;;;;12.5;7;;;;;;;2.39;100;99225.7;;;;
2021/04/13 16:48:52;;;;;;;12.8;9.7;;;;;;;2.29;100;99226.3;;;;
2021/04/13 16:58:50;;;;;;;13.4;9.7;;;;;;;2.23;100;99231.77;;;;
2021/04/13 17:08:48;;;;;;;13.5;9.6;;;;;;;2.06;100;99214.95;;;;
2021/04/13 17:18:46;;;;;;;19.6;12;;;;;;;2.02;100;99223.41;;;;
2021/04/13 17:28:43;;;;;;;25.6;19.6;;;;;;;1.87;100;99224.98;;;;
2021/04/13 17:38:41;;;;;;;11;8.8;;;;;;;1.88;100;99235.35;;;;
2021/04/13 17:48:39;;;;;;;13.8;11.6;;;;;;;1.72;100;99251.22;;;;
2021/04/13 17:58:37;;;;;;;14.5;7.7;;;;;;;1.62;100;99246.51;;;;
2021/04/13 18:08:38;;;;;;;9.8;7.7;;;;;;;1.79;100;99251.91;;;;
2021/04/13 18:18:34;;;;;;;34.9;26.5;;;;;;;1.75;100;99261.38;;;;
2021/04/13 18:28:33;;;;;;;61.8;47.8;;;;;;;1.73;100;99264.28;;;;
2021/04/13 18:38:34;;;;;;;35.6;24.6;;;;;;;1.63;100;99268.58;;;;
2021/04/13 18:48:26;;;;;;;21.1;15.1;;;;;;;1.56;100;99274.02;;;;
2021/04/13 18:58:24;;;;;;;17.5;14.3;;;;;;;1.5;100;99266.95;;;;
2021/04/13 19:08:26;;;;;;;28.5;24.2;;;;;;;1.44;100;99260.73;;;;
2021/04/13 19:18:21;;;;;;;12.1;9;;;;;;;1.4;100;99259.57;;;;
2021/04/13 19:28:17;;;;;;;13.7;11.4;;;;;;;1.43;100;99255.64;;;;
2021/04/13 19:38:15;;;;;;;37.5;26.9;;;;;;;1.37;100;99261.88;;;;
2021/04/13 19:48:13;;;;;;;63.7;41.7;;;;;;;1.36;100;99257.59;;;;
2021/04/13 19:58:10;;;;;;;23.4;21.1;;;;;;;1.3;100;99248.72;;;;
2021/04/13 20:08:08;;;;;;;20.4;16.7;;;;;;;1.08;100;99239.7;;;;
2021/04/13 20:18:10;;;;;;;25.7;18.8;;;;;;;0.97;100;99240.52;;;;
2021/04/13 20:28:04;;;;;;;20.5;14.9;;;;;;;0.86;100;99231.52;;;;
2021/04/13 20:47:59;;;;;;;25.6;20.3;;;;;;;0.78;100;99215.11;;;;
2021/04/13 20:57:57;;;;;;;32.1;21.5;;;;;;;0.87;100;99206.57;;;;
2021/04/13 21:07:57;;;;;;;25.5;19.9;;;;;;;0.84;100;99203.56;;;;
2021/04/13 21:17:52;;;;;;;33.1;25.6;;;;;;;0.77;100;99195.72;;;;
2021/04/13 21:27:50;;;;;;;28;23;;;;;;;0.78;100;99185.92;;;;
2021/04/13 21:37:47;;;;;;;28.9;22.1;;;;;;;0.78;100;99191.23;;;;
2021/04/13 21:47:45;;;;;;;33;26.1;;;;;;;0.82;100;99187.08;;;;
2021/04/13 21:57:43;;;;;;;39.1;29.6;;;;;;;0.69;100;99174.05;;;;
2021/04/13 22:07:40;;;;;;;25;21.9;;;;;;;0.76;100;99166.79;;;;
2021/04/13 22:17:38;;;;;;;27.9;24.3;;;;;;;0.76;100;99172.91;;;;
2021/04/13 22:27:38;;;;;;;32.4;26.4;;;;;;;0.78;100;99170.81;;;;
2021/04/13 22:37:38;;;;;;;32.3;23.1;;;;;;;0.84;100;99164.58;;;;
2021/04/13 22:47:31;;;;;;;36.8;26.9;;;;;;;0.79;100;99156.52;;;;
2021/04/13 22:57:34;;;;;;;31.8;27.4;;;;;;;0.74;100;99155.58;;;;
2021/04/13 23:07:30;;;;;;;35.7;30.8;;;;;;;0.8;100;99154.69;;;;
2021/04/13 23:17:25;;;;;;;35.4;29.8;;;;;;;0.8;100;99152.03;;;;
2021/04/13 23:27:22;;;;;;;40.8;31;;;;;;;0.8;100;99144.07;;;;
2021/04/13 23:37:20;;;;;;;34.7;31.2;;;;;;;0.76;100;99133.11;;;;
2021/04/13 23:47:18;;;;;;;32;26.7;;;;;;;0.66;100;99126.77;;;;
2021/04/13 23:57:15;;;;;;;34.2;25.1;;;;;;;0.72;100;99126.65;;;;
